Time;durP1;ratioP1;P1;durP2;ratioP2;P2;SDS_P1;SDS_P2;PMS_P1;PMS_P2;Temp;Humidity;BMP_temperature;BMP_pressure;BME280_temperature;BME280_humidity;BME280_pressure;Samples;Min_cycle;Max_cycle;Signal;HPM_P1;HPM_P2
2023/08/08 00:01:21;;;;;;;;;;;16.00;94.90;;;;;;5068752;28;20493;-69
2023/08/08 00:03:47;;;;;;;;;;;16.00;94.80;;;;;;5072773;28;20011;-69
2023/08/08 00:06:12;;;;;;;;;;;16.00;94.80;;;;;;5095303;28;19923;-69
2023/08/08 00:08:38;;;;;;;;;;;16.00;94.80;;;;;;5088775;28;19920;-69
2023/08/08 00:11:04;;;;;;;;;;;16.00;94.90;;;;;;5088754;28;20010;-69
2023/08/08 00:13:29;;;;;;;;;;;16.00;95.20;;;;;;5088734;28;19912;-69
2023/08/08 00:15:54;;;;;;;;;;;16.00;94.90;;;;;;5088179;28;19951;-69
2023/08/08 00:18:20;;;;;;;;;;;16.00;94.90;;;;;;5088189;28;19938;-68
2023/08/08 00:20:45;;;;;;;;;;;16.00;94.80;;;;;;5084391;28;19918;-69
2023/08/08 00:23:11;;;;;;;;;;;16.00;94.90;;;;;;5095899;28;19916;-69
2023/08/08 00:25:37;;;;;;;;;;;16.00;94.80;;;;;;5090565;28;19939;-69
2023/08/08 00:28:02;;;;;;;;;;;16.00;94.90;;;;;;5069961;28;19908;-69
2023/08/08 00:30:28;;;;;;;;;;;15.90;94.90;;;;;;5088390;28;19939;-69
2023/08/08 00:32:53;;;;;;;;;;;15.90;94.90;;;;;;5088482;28;20003;-69
2023/08/08 00:35:19;;;;;;;;;;;15.90;94.90;;;;;;5088341;28;19916;-69
2023/08/08 00:37:44;;;;;;;;;;;15.90;94.90;;;;;;5091586;28;19927;-69
2023/08/08 00:40:10;;;;;;;;;;;15.90;94.90;;;;;;5108091;28;19916;-69
2023/08/08 00:42:35;;;;;;;;;;;15.90;94.70;;;;;;5091865;28;19923;-69
2023/08/08 00:45:04;;;;;;;;;;;15.90;94.90;;;;;;5088238;28;19952;-69
2023/08/08 00:47:30;;;;;;;;;;;15.90;95.00;;;;;;5087912;28;19912;-69
2023/08/08 00:49:56;;;;;;;;;;;15.90;94.90;;;;;;5087917;28;20003;-68
2023/08/08 00:52:21;;;;;;;;;;;15.90;95.00;;;;;;5088108;28;20061;-69
2023/08/08 00:54:47;;;;;;;;;;;15.90;95.00;;;;;;5098281;28;20379;-69
2023/08/08 00:57:13;;;;;;;;;;;15.90;95.00;;;;;;5086148;28;19930;-69
2023/08/08 00:59:38;;;;;;;;;;;15.80;95.00;;;;;;5087656;28;20274;-68
2023/08/08 01:02:04;;;;;;;;;;;15.90;95.00;;;;;;5087006;28;20003;-69
2023/08/08 01:04:29;;;;;;;;;;;15.80;95.00;;;;;;5086687;28;19923;-69
2023/08/08 01:06:55;;;;;;;;;;;15.80;95.10;;;;;;5069174;28;19918;-69
2023/08/08 01:09:33;;;;;;;;;;;15.80;94.90;;;;;;5087788;28;19912;-69
2023/08/08 01:11:59;;;;;;;;;;;15.80;95.00;;;;;;5088828;28;19916;-69
2023/08/08 01:14:26;;;;;;;;;;;15.80;95.00;;;;;;5108020;28;20628;-69
2023/08/08 01:16:57;;;;;;;;;;;15.80;95.00;;;;;;5107683;28;19908;-69
2023/08/08 01:19:27;;;;;;;;;;;15.80;94.90;;;;;;5077548;28;20003;-69
2023/08/08 01:21:53;;;;;;;;;;;15.80;95.00;;;;;;5084256;28;19912;-69
2023/08/08 01:24:23;;;;;;;;;;;15.80;94.90;;;;;;5097155;28;20296;-69
2023/08/08 01:26:49;;;;;;;;;;;15.80;95.00;;;;;;5088756;28;19912;-69
2023/08/08 01:29:14;;;;;;;;;;;15.70;95.00;;;;;;5108427;28;19965;-69
2023/08/08 01:31:40;;;;;;;;;;;15.70;94.90;;;;;;5107261;28;20409;-69
2023/08/08 01:34:05;;;;;;;;;;;15.70;95.00;;;;;;5087823;28;19916;-69
2023/08/08 01:36:38;;;;;;;;;;;15.70;95.00;;;;;;5087490;28;20392;-69
2023/08/08 01:39:09;;;;;;;;;;;15.70;95.00;;;;;;5090058;28;19919;-69
2023/08/08 01:41:37;;;;;;;;;;;15.70;94.90;;;;;;5087718;28;19912;-69
2023/08/08 01:44:03;;;;;;;;;;;15.70;95.00;;;;;;5088537;28;19913;-69
2023/08/08 01:46:28;;;;;;;;;;;15.70;95.00;;;;;;5087258;28;19908;-68
2023/08/08 01:48:54;;;;;;;;;;;15.70;94.90;;;;;;5087712;28;19912;-69
2023/08/08 01:51:19;;;;;;;;;;;15.70;95.00;;;;;;5087622;28;20579;-69
2023/08/08 01:53:45;;;;;;;;;;;15.60;94.90;;;;;;5072839;28;20022;-69
2023/08/08 01:56:10;;;;;;;;;;;15.60;94.70;;;;;;5086940;28;19912;-69
2023/08/08 01:58:36;;;;;;;;;;;15.60;95.00;;;;;;5069447;28;19915;-69
2023/08/08 02:01:01;;;;;;;;;;;15.60;95.00;;;;;;5088458;28;19919;-69
2023/08/08 02:03:27;;;;;;;;;;;15.60;94.70;;;;;;5087342;28;19986;-69
2023/08/08 02:05:52;;;;;;;;;;;15.60;94.90;;;;;;5087119;28;19915;-69
2023/08/08 02:08:18;;;;;;;;;;;15.60;94.90;;;;;;5089200;28;19947;-69
2023/08/08 02:10:43;;;;;;;;;;;15.60;94.90;;;;;;5091176;28;19992;-69
2023/08/08 02:13:09;;;;;;;;;;;15.60;94.90;;;;;;5072799;28;19916;-69
2023/08/08 02:15:34;;;;;;;;;;;15.60;94.90;;;;;;5090995;28;19918;-69
2023/08/08 02:18:00;;;;;;;;;;;15.50;94.80;;;;;;5092283;28;20369;-69
2023/08/08 02:20:26;;;;;;;;;;;15.50;94.60;;;;;;5087112;28;19919;-69
2023/08/08 02:22:51;;;;;;;;;;;15.50;95.00;;;;;;5090781;28;19977;-69
2023/08/08 02:25:17;;;;;;;;;;;15.50;94.90;;;;;;5077707;28;20348;-69
2023/08/08 02:27:42;;;;;;;;;;;15.50;94.80;;;;;;5090536;28;19907;-69
2023/08/08 02:30:08;;;;;;;;;;;15.50;94.80;;;;;;5090546;28;20060;-69
2023/08/08 02:32:34;;;;;;;;;;;15.50;94.90;;;;;;5091100;28;19943;-69
2023/08/08 02:34:59;;;;;;;;;;;15.50;94.90;;;;;;5097111;28;20014;-69
2023/08/08 02:37:25;;;;;;;;;;;15.50;94.60;;;;;;5099120;28;19923;-69
2023/08/08 02:39:50;;;;;;;;;;;15.50;94.80;;;;;;5090772;28;19916;-69
2023/08/08 02:42:16;;;;;;;;;;;15.50;94.80;;;;;;5090571;28;19958;-69
2023/08/08 02:44:41;;;;;;;;;;;15.50;94.90;;;;;;5072300;28;20273;-69
2023/08/08 02:47:07;;;;;;;;;;;15.50;94.90;;;;;;5089820;28;19938;-69
2023/08/08 02:49:33;;;;;;;;;;;15.50;94.80;;;;;;5092407;28;20396;-69
2023/08/08 02:51:59;;;;;;;;;;;15.50;94.90;;;;;;5092048;28;20357;-69
2023/08/08 02:54:25;;;;;;;;;;;15.50;94.80;;;;;;5096379;28;19919;-69
2023/08/08 02:56:50;;;;;;;;;;;15.50;94.90;;;;;;5069631;28;19912;-69
2023/08/08 02:59:16;;;;;;;;;;;15.50;94.90;;;;;;5051835;28;19916;-69
2023/08/08 03:01:41;;;;;;;;;;;15.50;94.90;;;;;;5069432;28;19948;-69
2023/08/08 03:04:07;;;;;;;;;;;15.50;94.80;;;;;;5070005;28;19962;-69
2023/08/08 03:06:32;;;;;;;;;;;15.50;94.90;;;;;;5081312;28;19920;-69
2023/08/08 03:08:58;;;;;;;;;;;15.50;94.90;;;;;;5090012;28;19957;-69
2023/08/08 03:11:23;;;;;;;;;;;15.50;94.80;;;;;;5090110;28;20343;-69
2023/08/08 03:13:49;;;;;;;;;;;15.50;95.00;;;;;;5090231;28;19943;-69
2023/08/08 03:16:14;;;;;;;;;;;15.50;95.00;;;;;;5071651;28;20323;-69
2023/08/08 03:18:40;;;;;;;;;;;15.50;94.80;;;;;;5089536;28;19916;-69
2023/08/08 03:21:06;;;;;;;;;;;15.40;95.00;;;;;;5084991;28;20549;-69
2023/08/08 03:23:31;;;;;;;;;;;15.50;95.00;;;;;;5102755;28;20292;-69
2023/08/08 03:25:57;;;;;;;;;;;15.50;95.00;;;;;;5089327;28;19981;-69
2023/08/08 03:28:22;;;;;;;;;;;15.40;95.00;;;;;;5071186;28;19912;-69
2023/08/08 03:30:48;;;;;;;;;;;15.50;94.90;;;;;;5089011;28;19999;-69
2023/08/08 03:33:13;;;;;;;;;;;15.50;95.00;;;;;;5089536;28;20408;-69
2023/08/08 03:35:39;;;;;;;;;;;15.50;95.00;;;;;;5089184;28;20439;-69
2023/08/08 03:38:04;;;;;;;;;;;15.50;95.00;;;;;;5088892;28;20011;-69
2023/08/08 03:40:30;;;;;;;;;;;15.50;95.10;;;;;;5085983;28;19999;-69
2023/08/08 03:42:56;;;;;;;;;;;15.40;95.00;;;;;;5103530;28;19923;-69
2023/08/08 03:45:21;;;;;;;;;;;15.40;95.10;;;;;;5088640;28;19952;-69
2023/08/08 03:47:47;;;;;;;;;;;15.40;95.10;;;;;;5091119;28;19965;-69
2023/08/08 03:50:13;;;;;;;;;;;15.40;95.00;;;;;;5087977;28;19916;-69
2023/08/08 03:52:38;;;;;;;;;;;15.40;95.30;;;;;;5071522;28;19908;-69
2023/08/08 03:55:04;;;;;;;;;;;15.40;95.20;;;;;;5086248;28;19912;-68
2023/08/08 03:57:30;;;;;;;;;;;15.40;95.30;;;;;;5088840;28;20007;-69
2023/08/08 03:59:55;;;;;;;;;;;15.40;95.30;;;;;;5088629;28;19919;-69
2023/08/08 04:02:21;;;;;;;;;;;15.40;95.40;;;;;;5088157;28;19955;-69
2023/08/08 04:04:46;;;;;;;;;;;15.40;95.50;;;;;;5067569;28;19916;-68
2023/08/08 04:07:12;;;;;;;;;;;15.30;95.40;;;;;;5088230;28;19919;-68
2023/08/08 04:09:37;;;;;;;;;;;15.40;95.50;;;;;;5088363;28;20273;-68
2023/08/08 04:12:03;;;;;;;;;;;15.30;95.50;;;;;;5089308;28;19933;-68
2023/08/08 04:14:29;;;;;;;;;;;15.30;95.50;;;;;;5088964;28;19934;-69
2023/08/08 04:16:54;;;;;;;;;;;15.30;95.50;;;;;;5087369;28;19969;-69
2023/08/08 04:19:20;;;;;;;;;;;15.30;95.60;;;;;;5088003;28;19916;-69
2023/08/08 04:21:45;;;;;;;;;;;15.30;95.70;;;;;;5087518;28;20459;-69
2023/08/08 04:24:12;;;;;;;;;;;15.30;95.70;;;;;;5097186;28;20459;-69
2023/08/08 04:26:37;;;;;;;;;;;15.30;95.60;;;;;;5088058;28;19931;-69
2023/08/08 04:29:03;;;;;;;;;;;15.30;95.60;;;;;;5089335;28;20373;-68
2023/08/08 04:31:29;;;;;;;;;;;15.30;95.70;;;;;;5088358;28;19955;-69
2023/08/08 04:33:59;;;;;;;;;;;15.30;95.70;;;;;;5088452;28;19919;-69
2023/08/08 04:36:28;;;;;;;;;;;15.30;95.70;;;;;;5087845;28;20492;-69
2023/08/08 04:38:54;;;;;;;;;;;15.30;95.80;;;;;;5088493;28;19930;-69
2023/08/08 04:41:19;;;;;;;;;;;15.30;96.00;;;;;;5087746;28;20406;-69
2023/08/08 04:43:45;;;;;;;;;;;15.30;95.90;;;;;;5088289;28;19912;-69
2023/08/08 04:46:11;;;;;;;;;;;15.30;95.80;;;;;;5102673;28;19920;-69
2023/08/08 04:48:37;;;;;;;;;;;15.30;95.80;;;;;;5090412;28;19919;-69
2023/08/08 04:51:04;;;;;;;;;;;15.30;95.80;;;;;;5063335;28;19916;-69
2023/08/08 04:53:30;;;;;;;;;;;15.30;95.80;;;;;;5071657;28;20284;-69
2023/08/08 04:55:55;;;;;;;;;;;15.30;95.80;;;;;;5086821;28;19912;-68
2023/08/08 04:58:21;;;;;;;;;;;15.30;95.80;;;;;;5087808;28;19912;-69
2023/08/08 05:00:46;;;;;;;;;;;15.30;96.00;;;;;;5087751;28;19920;-69
2023/08/08 05:03:12;;;;;;;;;;;15.30;95.90;;;;;;5068936;28;19966;-69
2023/08/08 05:05:37;;;;;;;;;;;15.30;95.90;;;;;;5086853;28;19966;-69
2023/08/08 05:08:03;;;;;;;;;;;15.30;95.90;;;;;;5087286;28;19912;-69
2023/08/08 05:10:29;;;;;;;;;;;15.30;96.10;;;;;;5087450;28;20022;-69
2023/08/08 05:12:55;;;;;;;;;;;15.30;96.10;;;;;;5087485;28;20261;-69
2023/08/08 05:15:20;;;;;;;;;;;15.30;96.00;;;;;;5087516;28;20011;-69
2023/08/08 05:17:46;;;;;;;;;;;15.30;96.00;;;;;;5086667;28;19920;-69
2023/08/08 05:20:12;;;;;;;;;;;15.40;96.10;;;;;;5087174;28;20262;-69
2023/08/08 05:22:37;;;;;;;;;;;15.40;96.10;;;;;;5088786;28;20406;-69
2023/08/08 05:25:03;;;;;;;;;;;15.40;96.00;;;;;;5087589;28;19947;-69
2023/08/08 05:27:28;;;;;;;;;;;15.40;96.00;;;;;;5087252;28;19919;-69
2023/08/08 05:29:54;;;;;;;;;;;15.40;96.00;;;;;;5087265;28;20022;-69
2023/08/08 05:32:19;;;;;;;;;;;15.40;96.00;;;;;;5087078;28;19966;-69
2023/08/08 05:34:45;;;;;;;;;;;15.40;96.20;;;;;;5087519;28;20019;-69
2023/08/08 05:37:10;;;;;;;;;;;15.40;96.10;;;;;;5087717;28;19944;-66
2023/08/08 05:39:38;;;;;;;;;;;15.40;96.10;;;;;;5087714;28;20211;-66
2023/08/08 05:42:03;;;;;;;;;;;15.40;96.20;;;;;;5086666;28;20242;-67
2023/08/08 05:44:29;;;;;;;;;;;15.40;96.30;;;;;;5090771;28;19967;-67
2023/08/08 05:46:54;;;;;;;;;;;15.40;96.20;;;;;;5090513;28;19942;-66
2023/08/08 05:49:20;;;;;;;;;;;15.40;96.20;;;;;;5072897;28;20019;-67
2023/08/08 05:51:45;;;;;;;;;;;15.40;96.20;;;;;;5072402;28;20257;-67
2023/08/08 05:54:11;;;;;;;;;;;15.40;96.40;;;;;;5078558;28;19923;-67
2023/08/08 05:56:37;;;;;;;;;;;15.40;96.40;;;;;;5090407;28;19947;-67
2023/08/08 05:59:02;;;;;;;;;;;15.40;96.50;;;;;;5090648;28;19990;-66
2023/08/08 06:01:28;;;;;;;;;;;15.40;96.40;;;;;;5090510;28;19920;-66
2023/08/08 06:03:54;;;;;;;;;;;15.40;96.30;;;;;;5090693;28;19912;-67
2023/08/08 06:06:19;;;;;;;;;;;15.40;96.30;;;;;;5090499;28;19916;-66
2023/08/08 06:08:45;;;;;;;;;;;15.40;96.30;;;;;;5091447;28;19915;-66
2023/08/08 06:11:10;;;;;;;;;;;15.40;96.30;;;;;;5090341;28;19923;-67
2023/08/08 06:13:36;;;;;;;;;;;15.50;96.40;;;;;;5090811;28;19919;-67
2023/08/08 06:16:06;;;;;;;;;;;15.50;96.50;;;;;;5090478;28;19909;-67
2023/08/08 06:18:32;;;;;;;;;;;15.40;96.40;;;;;;5090738;28;19966;-66
2023/08/08 06:20:57;;;;;;;;;;;15.40;96.50;;;;;;5086751;28;19915;-66
2023/08/08 06:23:23;;;;;;;;;;;15.50;96.40;;;;;;5098492;28;19925;-67
2023/08/08 06:25:48;;;;;;;;;;;15.50;96.40;;;;;;5053671;28;20507;-66
2023/08/08 06:28:14;;;;;;;;;;;15.50;96.50;;;;;;5070538;28;20347;-67
2023/08/08 06:30:39;;;;;;;;;;;15.50;96.50;;;;;;5073831;28;19920;-67
2023/08/08 06:33:05;;;;;;;;;;;15.50;96.70;;;;;;5090696;28;19913;-66
2023/08/08 06:35:30;;;;;;;;;;;15.50;96.50;;;;;;5072193;28;19919;-66
2023/08/08 06:37:56;;;;;;;;;;;15.50;96.60;;;;;;5089848;28;20368;-66
2023/08/08 06:40:21;;;;;;;;;;;15.50;96.60;;;;;;5089758;28;20011;-66
2023/08/08 06:42:47;;;;;;;;;;;15.60;96.60;;;;;;5089155;28;20478;-66
2023/08/08 06:45:12;;;;;;;;;;;15.60;96.70;;;;;;5089021;28;19924;-67
2023/08/08 06:47:38;;;;;;;;;;;15.60;96.80;;;;;;5090975;28;19957;-66
2023/08/08 06:50:05;;;;;;;;;;;15.70;96.50;;;;;;5090319;28;19908;-66
2023/08/08 06:52:30;;;;;;;;;;;15.70;96.60;;;;;;5090089;28;19922;-66
2023/08/08 06:54:56;;;;;;;;;;;15.70;96.60;;;;;;5087255;28;19912;-67
2023/08/08 06:57:22;;;;;;;;;;;15.70;96.70;;;;;;5089615;28;19995;-67
2023/08/08 06:59:50;;;;;;;;;;;15.70;96.60;;;;;;5089995;28;19999;-66
2023/08/08 07:02:16;;;;;;;;;;;15.70;96.70;;;;;;5071714;28;19922;-66
2023/08/08 07:04:42;;;;;;;;;;;15.70;96.80;;;;;;5089669;28;19920;-66
2023/08/08 07:07:07;;;;;;;;;;;15.70;96.70;;;;;;5089122;28;19916;-66
2023/08/08 07:09:33;;;;;;;;;;;15.70;96.70;;;;;;5089630;28;19912;-66
2023/08/08 07:11:58;;;;;;;;;;;15.80;96.60;;;;;;5071304;28;19919;-66
2023/08/08 07:14:24;;;;;;;;;;;15.90;96.50;;;;;;5089560;28;19966;-66
2023/08/08 07:16:49;;;;;;;;;;;15.90;96.30;;;;;;5088159;28;20001;-66
2023/08/08 07:19:15;;;;;;;;;;;15.90;96.30;;;;;;5089452;28;19916;-66
2023/08/08 07:21:41;;;;;;;;;;;15.90;96.70;;;;;;5070590;28;19918;-66
2023/08/08 07:24:06;;;;;;;;;;;15.90;96.70;;;;;;5080402;28;19912;-67
2023/08/08 07:26:32;;;;;;;;;;;16.00;96.50;;;;;;5097982;28;19923;-66
2023/08/08 07:28:57;;;;;;;;;;;16.00;96.60;;;;;;5110212;28;19911;-66
2023/08/08 07:31:23;;;;;;;;;;;16.00;96.50;;;;;;5109708;28;19911;-66
2023/08/08 07:33:48;;;;;;;;;;;16.10;96.50;;;;;;5086691;28;19912;-67
2023/08/08 07:36:14;;;;;;;;;;;16.10;96.40;;;;;;5088956;28;19912;-67
2023/08/08 07:38:39;;;;;;;;;;;16.20;96.50;;;;;;5089244;28;19947;-67
2023/08/08 07:41:05;;;;;;;;;;;16.20;96.60;;;;;;5088670;28;19983;-66
2023/08/08 07:43:31;;;;;;;;;;;16.20;96.40;;;;;;5104281;28;19916;-67
2023/08/08 07:45:56;;;;;;;;;;;16.30;96.50;;;;;;5108774;28;19923;-67
2023/08/08 07:48:22;;;;;;;;;;;16.30;96.40;;;;;;5100655;28;19915;-67
2023/08/08 07:50:47;;;;;;;;;;;16.20;96.40;;;;;;5108269;28;19911;-67
2023/08/08 07:53:12;;;;;;;;;;;16.30;96.30;;;;;;5108914;28;19919;-67
2023/08/08 07:55:38;;;;;;;;;;;16.30;96.90;;;;;;5074187;28;20541;-67
2023/08/08 07:58:03;;;;;;;;;;;16.30;96.60;;;;;;5069158;28;19985;-67
2023/08/08 08:00:29;;;;;;;;;;;16.30;96.60;;;;;;5106922;28;19941;-67
2023/08/08 08:02:54;;;;;;;;;;;16.40;96.60;;;;;;5108825;28;19912;-66
2023/08/08 08:05:20;;;;;;;;;;;16.40;96.50;;;;;;5091023;28;19916;-67
2023/08/08 08:07:45;;;;;;;;;;;16.40;96.70;;;;;;5088647;28;19912;-67
2023/08/08 08:10:13;;;;;;;;;;;16.40;96.60;;;;;;5088376;28;19916;-67
2023/08/08 08:12:39;;;;;;;;;;;16.50;96.60;;;;;;5088785;28;19908;-67
2023/08/08 08:15:05;;;;;;;;;;;16.50;96.40;;;;;;5089362;28;19912;-67
2023/08/08 08:17:30;;;;;;;;;;;16.50;96.50;;;;;;5088579;28;19990;-67
2023/08/08 08:19:56;;;;;;;;;;;16.50;96.30;;;;;;5084581;28;19912;-67
2023/08/08 08:22:21;;;;;;;;;;;16.50;96.50;;;;;;5088322;28;20273;-67
2023/08/08 08:24:47;;;;;;;;;;;16.50;96.40;;;;;;5079345;28;19916;-67
2023/08/08 08:27:12;;;;;;;;;;;16.50;96.60;;;;;;5069278;28;20351;-67
2023/08/08 08:29:39;;;;;;;;;;;16.60;96.70;;;;;;5088800;28;19908;-66
2023/08/08 08:32:04;;;;;;;;;;;16.60;96.50;;;;;;5089069;28;19977;-67
2023/08/08 08:34:30;;;;;;;;;;;16.60;96.40;;;;;;5088434;28;20620;-66
2023/08/08 08:36:55;;;;;;;;;;;16.60;96.30;;;;;;5087766;28;19919;-67
2023/08/08 08:39:21;;;;;;;;;;;16.60;96.30;;;;;;5088266;28;20027;-67
2023/08/08 08:41:48;;;;;;;;;;;16.70;96.40;;;;;;5087923;28;19912;-67
2023/08/08 08:44:14;;;;;;;;;;;16.70;96.30;;;;;;5069394;28;19912;-66
2023/08/08 08:46:40;;;;;;;;;;;16.70;96.40;;;;;;5087329;28;19943;-66
2023/08/08 08:49:08;;;;;;;;;;;16.70;96.40;;;;;;5094459;28;20488;-66
2023/08/08 08:51:34;;;;;;;;;;;16.80;96.20;;;;;;5108530;28;19919;-66
2023/08/08 08:54:00;;;;;;;;;;;16.80;96.20;;;;;;5101012;28;20014;-66
2023/08/08 08:56:26;;;;;;;;;;;16.80;96.20;;;;;;5067495;28;20413;-66
2023/08/08 08:58:52;;;;;;;;;;;16.90;96.10;;;;;;5068072;28;19909;-66
2023/08/08 09:01:18;;;;;;;;;;;17.00;96.00;;;;;;5067565;28;20000;-66
2023/08/08 09:03:44;;;;;;;;;;;17.00;96.10;;;;;;5071490;28;20280;-66
2023/08/08 09:06:10;;;;;;;;;;;17.00;96.10;;;;;;5095542;28;19924;-67
2023/08/08 09:08:36;;;;;;;;;;;17.00;96.10;;;;;;5087962;28;19986;-66
2023/08/08 09:11:01;;;;;;;;;;;17.10;96.00;;;;;;5087981;28;20287;-66
2023/08/08 09:13:27;;;;;;;;;;;17.20;95.80;;;;;;5087718;28;19908;-66
2023/08/08 09:15:53;;;;;;;;;;;17.30;95.90;;;;;;5087695;28;19954;-66
2023/08/08 09:18:18;;;;;;;;;;;17.30;95.60;;;;;;5089787;28;20786;-67
2023/08/08 09:20:48;;;;;;;;;;;17.30;95.70;;;;;;5089392;28;20432;-66
2023/08/08 09:23:13;;;;;;;;;;;17.40;95.60;;;;;;5098488;28;19911;-66
2023/08/08 09:25:39;;;;;;;;;;;17.40;95.50;;;;;;5093443;28;19935;-66
2023/08/08 09:28:05;;;;;;;;;;;17.40;95.70;;;;;;5092238;28;19912;-66
2023/08/08 09:30:30;;;;;;;;;;;17.40;95.40;;;;;;5091923;28;19919;-66
2023/08/08 09:32:58;;;;;;;;;;;17.40;95.20;;;;;;5092089;28;20286;-66
2023/08/08 09:35:23;;;;;;;;;;;17.50;95.20;;;;;;5091610;28;19908;-67
2023/08/08 09:37:49;;;;;;;;;;;17.50;95.10;;;;;;5091817;28;19993;-66
2023/08/08 09:40:15;;;;;;;;;;;17.50;95.20;;;;;;5091426;28;20327;-66
2023/08/08 09:42:41;;;;;;;;;;;17.60;95.00;;;;;;5091542;28;19951;-66
2023/08/08 09:45:08;;;;;;;;;;;17.70;95.00;;;;;;5091490;28;20441;-66
2023/08/08 09:47:33;;;;;;;;;;;17.70;94.80;;;;;;5091296;28;19908;-66
2023/08/08 09:50:00;;;;;;;;;;;17.70;94.70;;;;;;5091523;28;20778;-66
2023/08/08 09:52:27;;;;;;;;;;;17.70;94.70;;;;;;5091735;28;20071;-66
2023/08/08 09:54:52;;;;;;;;;;;17.90;94.60;;;;;;5102798;28;19919;-67
2023/08/08 09:57:18;;;;;;;;;;;17.90;94.40;;;;;;5111288;28;19985;-66
2023/08/08 09:59:45;;;;;;;;;;;17.80;94.40;;;;;;5093609;28;19908;-66
2023/08/08 10:02:13;;;;;;;;;;;17.80;94.20;;;;;;5111595;28;19911;-66
2023/08/08 10:04:39;;;;;;;;;;;17.80;94.20;;;;;;5100420;28;19912;-66
2023/08/08 10:07:04;;;;;;;;;;;17.90;94.20;;;;;;5090557;28;19916;-66
2023/08/08 10:09:30;;;;;;;;;;;18.00;94.20;;;;;;5092422;28;19973;-66
2023/08/08 10:11:56;;;;;;;;;;;18.00;94.30;;;;;;5090835;28;20278;-66
2023/08/08 10:14:28;;;;;;;;;;;18.10;94.10;;;;;;5090974;28;19955;-66
2023/08/08 10:16:53;;;;;;;;;;;18.20;93.80;;;;;;5090703;28;20007;-67
2023/08/08 10:19:21;;;;;;;;;;;18.20;93.80;;;;;;5090898;28;20257;-66
2023/08/08 10:21:47;;;;;;;;;;;18.30;93.90;;;;;;5090264;28;20653;-66
2023/08/08 10:24:13;;;;;;;;;;;18.40;93.70;;;;;;5099741;28;19920;-67
2023/08/08 10:26:59;;;;;;;;;;;18.30;93.70;;;;;;5091606;28;20335;-66
2023/08/08 10:29:26;;;;;;;;;;;18.40;93.60;;;;;;5090517;28;19935;-66
2023/08/08 10:32:03;;;;;;;;;;;18.50;93.70;;;;;;5090515;28;20529;-66
2023/08/08 10:34:41;;;;;;;;;;;18.50;93.40;;;;;;5090624;28;19946;-66
2023/08/08 10:37:13;;;;;;;;;;;18.60;93.40;;;;;;5090153;28;19912;-66
2023/08/08 10:39:53;;;;;;;;;;;18.70;93.20;;;;;;5072456;28;19935;-66
2023/08/08 10:42:19;;;;;;;;;;;18.80;93.20;;;;;;5090531;28;19915;-65
2023/08/08 10:44:52;;;;;;;;;;;18.70;93.20;;;;;;5090726;28;19939;-65
2023/08/08 10:47:21;;;;;;;;;;;18.70;93.40;;;;;;5089428;28;19919;-65
2023/08/08 10:49:55;;;;;;;;;;;18.60;93.60;;;;;;5089779;28;20495;-65
2023/08/08 10:52:21;;;;;;;;;;;18.60;93.70;;;;;;5089729;28;19996;-65
2023/08/08 10:54:53;;;;;;;;;;;18.50;93.90;;;;;;5091515;28;19916;-65
2023/08/08 10:57:19;;;;;;;;;;;18.50;93.70;;;;;;5089441;28;19919;-65
2023/08/08 10:59:44;;;;;;;;;;;18.40;94.20;;;;;;5071716;28;19928;-65
2023/08/08 11:02:10;;;;;;;;;;;18.40;94.40;;;;;;5089708;28;20563;-66
2023/08/08 11:04:35;;;;;;;;;;;18.40;94.40;;;;;;5089949;28;19919;-66
2023/08/08 11:07:01;;;;;;;;;;;18.30;94.30;;;;;;5089088;28;19924;-66
2023/08/08 11:09:27;;;;;;;;;;;18.20;94.30;;;;;;5089284;28;19916;-65
2023/08/08 11:11:52;;;;;;;;;;;18.20;94.00;;;;;;5089169;28;19919;-65
2023/08/08 11:14:19;;;;;;;;;;;18.20;94.40;;;;;;5089903;28;19915;-65
2023/08/08 11:16:46;;;;;;;;;;;18.10;94.40;;;;;;5088611;28;19912;-65
2023/08/08 11:19:12;;;;;;;;;;;18.20;94.40;;;;;;5071144;28;19958;-66
2023/08/08 11:21:40;;;;;;;;;;;18.20;94.00;;;;;;5070699;28;19915;-65
2023/08/08 11:24:06;;;;;;;;;;;18.20;93.70;;;;;;5086986;28;20591;-65
2023/08/08 11:26:32;;;;;;;;;;;18.30;93.80;;;;;;5087090;28;20552;-65
2023/08/08 11:28:59;;;;;;;;;;;18.30;93.60;;;;;;5089120;28;20007;-66
2023/08/08 11:31:24;;;;;;;;;;;18.30;93.70;;;;;;5090396;28;19962;-66
2023/08/08 11:33:50;;;;;;;;;;;18.30;93.90;;;;;;5089811;28;19952;-66
2023/08/08 11:36:16;;;;;;;;;;;18.40;93.80;;;;;;5089171;28;19912;-66
2023/08/08 11:38:43;;;;;;;;;;;18.30;93.70;;;;;;5089501;28;19948;-66
2023/08/08 11:41:12;;;;;;;;;;;18.30;93.80;;;;;;5088155;28;19963;-66
2023/08/08 11:43:39;;;;;;;;;;;18.30;93.60;;;;;;5088755;28;19951;-67
2023/08/08 11:46:08;;;;;;;;;;;18.20;93.40;;;;;;5087719;28;19970;-66
2023/08/08 11:48:35;;;;;;;;;;;18.20;93.70;;;;;;5089596;28;20010;-66
2023/08/08 11:51:04;;;;;;;;;;;18.30;93.20;;;;;;5089020;28;20470;-66
2023/08/08 11:53:29;;;;;;;;;;;18.40;93.60;;;;;;5097693;28;19953;-66
2023/08/08 11:55:55;;;;;;;;;;;18.60;93.30;;;;;;5074030;28;19907;-66
2023/08/08 11:58:23;;;;;;;;;;;18.70;93.00;;;;;;5106623;28;19919;-66
2023/08/08 12:00:50;;;;;;;;;;;18.70;93.00;;;;;;5107945;28;19995;-66
2023/08/08 12:03:18;;;;;;;;;;;18.80;93.10;;;;;;5108796;28;19912;-66
2023/08/08 12:05:45;;;;;;;;;;;18.90;93.00;;;;;;5078287;28;20661;-66
2023/08/08 12:08:10;;;;;;;;;;;19.00;92.80;;;;;;5088907;28;19908;-66
2023/08/08 12:10:36;;;;;;;;;;;18.90;92.70;;;;;;5088067;28;20247;-66
2023/08/08 12:13:02;;;;;;;;;;;19.10;92.80;;;;;;5088315;28;20011;-66
2023/08/08 12:15:28;;;;;;;;;;;19.20;92.70;;;;;;5088001;28;19915;-66
2023/08/08 12:17:54;;;;;;;;;;;19.30;92.40;;;;;;5088707;28;20339;-66
2023/08/08 12:20:20;;;;;;;;;;;19.30;92.60;;;;;;5088225;28;19923;-66
2023/08/08 12:22:47;;;;;;;;;;;19.40;92.60;;;;;;5086951;28;19973;-66
2023/08/08 12:25:12;;;;;;;;;;;19.50;92.50;;;;;;5086060;28;19974;-66
2023/08/08 12:27:38;;;;;;;;;;;19.60;92.40;;;;;;5087472;28;20428;-66
2023/08/08 12:30:05;;;;;;;;;;;19.60;92.10;;;;;;5087561;28;19912;-66
2023/08/08 12:32:32;;;;;;;;;;;19.60;92.40;;;;;;5087327;28;20002;-66
2023/08/08 12:34:57;;;;;;;;;;;19.60;92.20;;;;;;5087579;28;19943;-66
2023/08/08 12:37:23;;;;;;;;;;;19.70;91.90;;;;;;5092264;28;19947;-66
2023/08/08 12:39:49;;;;;;;;;;;19.80;92.10;;;;;;5107870;28;19916;-66
2023/08/08 12:42:15;;;;;;;;;;;19.80;92.10;;;;;;5107986;28;20371;-66
2023/08/08 12:44:40;;;;;;;;;;;19.70;91.80;;;;;;5108048;28;19962;-66
2023/08/08 12:47:06;;;;;;;;;;;19.80;92.00;;;;;;5107197;28;19947;-66
2023/08/08 12:49:31;;;;;;;;;;;19.90;91.70;;;;;;5074721;28;19919;-66
2023/08/08 12:51:57;;;;;;;;;;;19.90;91.50;;;;;;5067016;28;19995;-66
2023/08/08 12:54:22;;;;;;;;;;;19.90;91.50;;;;;;5089120;28;20317;-66
2023/08/08 12:56:48;;;;;;;;;;;19.90;91.80;;;;;;5087092;28;19908;-66
2023/08/08 12:59:13;;;;;;;;;;;20.00;91.40;;;;;;5087141;28;19973;-66
2023/08/08 13:01:39;;;;;;;;;;;20.10;91.60;;;;;;5087136;28;19948;-66
2023/08/08 13:04:04;;;;;;;;;;;20.20;91.60;;;;;;5087494;28;19995;-66
2023/08/08 13:06:30;;;;;;;;;;;20.30;91.80;;;;;;5087050;28;19912;-67
2023/08/08 13:08:56;;;;;;;;;;;20.40;91.50;;;;;;5087579;28;19934;-66
2023/08/08 13:11:21;;;;;;;;;;;20.40;91.30;;;;;;5088124;28;19962;-67
2023/08/08 13:13:47;;;;;;;;;;;20.60;91.70;;;;;;5087502;28;20495;-66
2023/08/08 13:16:12;;;;;;;;;;;20.70;91.00;;;;;;5086875;28;19914;-67
2023/08/08 13:18:38;;;;;;;;;;;20.70;91.10;;;;;;5086900;28;20408;-66
2023/08/08 13:21:03;;;;;;;;;;;20.70;91.50;;;;;;5083187;28;20010;-66
2023/08/08 13:23:29;;;;;;;;;;;20.80;91.40;;;;;;5095785;28;19916;-66
2023/08/08 13:25:55;;;;;;;;;;;20.80;91.30;;;;;;5098671;28;19942;-66
2023/08/08 13:28:21;;;;;;;;;;;20.80;91.40;;;;;;5089521;28;19988;-66
2023/08/08 13:30:46;;;;;;;;;;;20.70;91.00;;;;;;5086361;28;19912;-66
2023/08/08 13:33:12;;;;;;;;;;;20.70;91.20;;;;;;5086759;28;19915;-66
2023/08/08 13:35:37;;;;;;;;;;;20.80;91.40;;;;;;5086562;28;20296;-66
2023/08/08 13:38:03;;;;;;;;;;;20.70;91.50;;;;;;5084248;28;20284;-66
2023/08/08 13:40:28;;;;;;;;;;;20.80;91.30;;;;;;5083096;28;19927;-66
2023/08/08 13:42:54;;;;;;;;;;;20.80;91.50;;;;;;5089813;28;19912;-66
2023/08/08 13:45:20;;;;;;;;;;;20.90;91.40;;;;;;5085276;28;19920;-66
2023/08/08 13:47:46;;;;;;;;;;;20.80;90.90;;;;;;5087054;28;19916;-66
2023/08/08 13:50:13;;;;;;;;;;;20.80;90.80;;;;;;5087444;28;19919;-66
2023/08/08 13:52:39;;;;;;;;;;;20.70;91.10;;;;;;5101527;28;19976;-66
2023/08/08 13:55:05;;;;;;;;;;;20.60;91.20;;;;;;5097635;28;19916;-67
2023/08/08 13:57:30;;;;;;;;;;;20.60;91.40;;;;;;5107847;28;19915;-67
2023/08/08 13:59:56;;;;;;;;;;;20.60;91.80;;;;;;5107933;28;19918;-66
2023/08/08 14:02:21;;;;;;;;;;;20.50;91.70;;;;;;5107716;28;20516;-66
2023/08/08 14:04:47;;;;;;;;;;;20.50;91.80;;;;;;5097692;28;19916;-66
2023/08/08 14:07:12;;;;;;;;;;;20.40;92.00;;;;;;5095508;28;19912;-67
2023/08/08 14:09:38;;;;;;;;;;;20.40;91.30;;;;;;5091420;28;19915;-67